Time;durP1;ratioP1;P1;durP2;ratioP2;P2;SDS_P1;SDS_P2;PMS_P1;PMS_P2;Temp;Humidity;BMP_temperature;BMP_pressure;BME280_temperature;BME280_humidity;BME280_pressure;Samples;Min_cycle;Max_cycle;Signal;HPM_P1;HPM_P2
2022/11/02 00:02:12;;;;;;;8.90;1.98;;;;;;;;;;5018233;28;20097;-84
2022/11/02 00:04:37;;;;;;;7.60;2.13;;;;;;;12.56;84.25;68169.25;5021114;28;20076;-82
2022/11/02 00:07:02;;;;;;;7.95;2.40;;;;;;;;;;5018863;28;20292;-83
2022/11/02 00:09:28;;;;;;;10.83;2.70;;;;;;;12.50;84.64;68154.44;5022444;28;20209;-82
2022/11/02 00:11:53;;;;;;;10.70;2.35;;;;;;;12.48;84.84;68159.59;5039331;28;20287;-82
2022/11/02 00:14:18;;;;;;;14.10;2.08;;;;;;;12.48;84.87;68154.25;5034255;28;20050;-83
2022/11/02 00:16:44;;;;;;;9.05;2.63;;;;;;;12.48;84.95;68159.59;5036369;28;20054;-82
2022/11/02 00:19:09;;;;;;;9.70;2.60;;;;;;;12.46;85.10;68151.97;5020168;28;20053;-83
2022/11/02 00:21:35;;;;;;;15.77;2.45;;;;;;;;;;5023294;28;20317;-82
2022/11/02 00:24:02;;;;;;;11.35;2.70;;;;;;;12.47;85.07;68153.69;5029782;28;20478;-83
2022/11/02 00:26:28;;;;;;;16.02;2.67;;;;;;;12.44;85.33;68149.72;5031819;28;20053;-82
2022/11/02 00:28:54;;;;;;;9.88;2.17;;;;;;;12.42;85.46;68148.56;5028334;28;20523;-82
2022/11/02 00:31:19;;;;;;;7.97;2.22;;;;;;;12.40;85.60;68151.66;5023800;28;20063;-82
2022/11/02 00:33:45;;;;;;;7.03;2.67;;;;;;;;;;5027316;28;20038;-83
2022/11/02 00:36:10;;;;;;;9.18;2.10;;;;;;;;;;5019026;28;20046;-83
2022/11/02 00:38:35;;;;;;;12.93;3.00;;;;;;;12.35;85.66;68145.97;5034822;28;20038;-82
2022/11/02 00:41:01;;;;;;;11.05;2.47;;;;;;;12.33;85.85;68146.34;5026781;28;20071;-83
2022/11/02 00:43:26;;;;;;;9.45;2.42;;;;;;;12.32;86.00;68141.97;5042220;28;20038;-83
2022/11/02 00:45:51;;;;;;;10.52;2.30;;;;;;;12.27;86.11;68131.53;5039929;28;20125;-82
2022/11/02 00:48:17;;;;;;;12.35;2.33;;;;;;;12.28;86.11;68138.00;5040182;28;20045;-82
2022/11/02 00:50:42;;;;;;;11.73;3.50;;;;;;;12.29;86.30;68133.25;5040602;28;20059;-83
2022/11/02 00:53:07;;;;;;;8.07;2.10;;;;;;;12.27;86.43;68136.88;5036472;28;20054;-83
2022/11/02 00:55:33;;;;;;;12.32;2.28;;;;;;;;;;5028857;28;20037;-83
2022/11/02 00:57:58;;;;;;;15.97;2.80;;;;;;;;;;5047785;28;20096;-83
2022/11/02 01:00:23;;;;;;;12.00;2.97;;;;;;;12.31;86.38;68141.41;5033403;28;20319;-83
2022/11/02 01:02:49;;;;;;;10.23;2.60;;;;;;;12.37;86.21;68142.31;5026880;28;20353;-83
2022/11/02 01:05:14;;;;;;;11.25;2.25;;;;;;;;;;5040966;28;20053;-83
2022/11/02 01:07:40;;;;;;;12.73;1.98;;;;;;;12.45;85.76;68148.19;5035273;28;20033;-83
2022/11/02 01:10:07;;;;;;;12.48;2.47;;;;;;;12.51;85.37;68163.56;5027831;28;20058;-82
2022/11/02 01:12:35;;;;;;;10.50;1.98;;;;;;;12.56;85.16;68163.34;5038332;28;20152;-83
2022/11/02 01:15:03;;;;;;;8.32;2.00;;;;;;;;;;5049189;28;20033;-84
2022/11/02 01:17:31;;;;;;;10.30;2.05;;;;;;;12.68;84.66;68181.75;5048476;28;20041;-83
2022/11/02 01:19:57;;;;;;;7.63;1.95;;;;;;;;;;5045241;28;20049;-84
2022/11/02 01:22:22;;;;;;;11.07;2.05;;;;;;;12.78;84.04;68193.69;5045722;28;20045;-83
2022/11/02 01:24:47;;;;;;;8.40;2.08;;;;;;;12.82;83.93;68192.91;5035389;28;20101;-83
2022/11/02 01:27:13;;;;;;;5.28;1.95;;;;;;;;;;5016709;28;20058;-82
2022/11/02 01:29:38;;;;;;;11.70;1.83;;;;;;;;;;5035144;28;20060;-82
2022/11/02 01:32:04;;;;;;;10.27;1.97;;;;;;;12.87;83.37;68206.03;5042203;28;20041;-82
2022/11/02 01:34:29;;;;;;;11.85;1.73;;;;;;;;;;5032648;28;20280;-82
2022/11/02 01:36:54;;;;;;;10.67;1.70;;;;;;;;;;5031476;28;20033;-83
2022/11/02 01:39:19;;;;;;;16.70;1.80;;;;;;;;;;5018028;28;20276;-82
2022/11/02 01:41:50;;;;;;;12.57;2.53;;;;;;;12.91;83.43;68202.00;5032811;28;20065;-83
2022/11/02 01:44:31;;;;;;;9.43;1.98;;;;;;;;;;5033246;28;20287;-82
2022/11/02 01:47:12;;;;;;;9.80;1.75;;;;;;;12.93;83.39;68209.63;5030240;28;20048;-82
2022/11/02 01:49:42;;;;;;;9.10;1.95;;;;;;;12.93;83.40;68204.84;5032934;28;20640;-83
2022/11/02 01:52:12;;;;;;;9.45;2.13;;;;;;;;;;5033062;28;20550;-84
2022/11/02 01:55:09;;;;;;;9.75;1.45;;;;;;;12.90;83.61;68198.19;5032638;28;20056;-85
2022/11/02 01:57:36;;;;;;;10.00;2.22;;;;;;;;;;4992257;28;20157;-86
2022/11/02 02:00:06;;;;;;;7.47;2.00;;;;;;;12.84;84.06;68200.53;5003773;28;20042;-86
2022/11/02 02:02:33;;;;;;;8.82;2.13;;;;;;;;;;5032550;28;20048;-83
2022/11/02 02:05:05;;;;;;;5.97;1.80;;;;;;;12.89;83.97;68200.31;5031561;28;20045;-84
2022/11/02 02:07:32;;;;;;;9.23;1.63;;;;;;;12.84;84.19;68195.19;5009090;28;20684;-83
2022/11/02 02:09:59;;;;;;;8.45;1.90;;;;;;;;;;5009154;28;20637;-83
2022/11/02 02:12:24;;;;;;;9.32;1.85;;;;;;;12.83;84.58;68199.38;5013822;28;20403;-83
2022/11/02 02:14:53;;;;;;;8.07;2.00;;;;;;;12.85;84.52;68196.31;5011084;28;20049;-83
2022/11/02 02:17:30;;;;;;;7.85;2.50;;;;;;;12.85;84.60;68207.00;4994025;28;20088;-83
2022/11/02 02:20:06;;;;;;;8.75;1.70;;;;;;;;;;4993561;28;20038;-83
2022/11/02 02:22:50;;;;;;;9.98;1.80;;;;;;;12.87;84.38;68198.59;5006546;28;20046;-83
2022/11/02 02:25:15;;;;;;;11.30;1.85;;;;;;;;;;4991886;28;20570;-84
2022/11/02 02:28:10;;;;;;;9.23;2.13;;;;;;;12.93;84.36;68202.16;5012374;28;20100;-84
2022/11/02 02:31:26;;;;;;;10.35;1.88;;;;;;;12.95;84.19;68212.47;5023219;28;20284;-84
2022/11/02 02:34:13;;;;;;;9.25;2.15;;;;;;;12.97;83.99;68209.38;4989265;28;20045;-83
2022/11/02 02:36:44;;;;;;;7.50;1.77;;;;;;;;;;5006629;28;20050;-83
2022/11/02 02:39:24;;;;;;;6.97;1.80;;;;;;;13.00;83.62;68217.56;5012159;28;20049;-84
2022/11/02 02:41:59;;;;;;;12.98;2.10;;;;;;;;;;5025729;28;20041;-84
2022/11/02 02:44:30;;;;;;;6.97;1.73;;;;;;;13.01;83.05;68213.94;5031190;28;20518;-83
2022/11/02 02:47:00;;;;;;;9.15;1.85;;;;;;;13.04;82.84;68222.13;5030622;28;20049;-83
2022/11/02 02:49:36;;;;;;;7.32;1.73;;;;;;;13.04;82.70;68222.13;5034895;28;20045;-83
2022/11/02 02:52:05;;;;;;;9.52;2.03;;;;;;;;;;5032943;28;20076;-83
2022/11/02 02:54:36;;;;;;;6.88;2.15;;;;;;;13.01;82.22;68219.28;5032687;28;20037;-83
2022/11/02 02:57:07;;;;;;;14.32;2.28;;;;;;;13.00;82.12;68212.22;5023851;28;20061;-84
2022/11/02 02:59:44;;;;;;;7.15;1.70;;;;;;;12.95;81.47;68212.47;5024190;28;20038;-84
2022/11/02 03:02:35;;;;;;;10.32;1.95;;;;;;;12.96;81.34;68207.69;5025993;28;20617;-84
2022/11/02 03:05:04;;;;;;;10.00;2.38;;;;;;;12.93;81.41;68204.84;5030446;28;20037;-84
2022/11/02 03:07:31;;;;;;;;;;;;;;;12.92;80.42;68200.44;5032874;28;20132;-84
2022/11/02 03:10:35;;;;;;;16.38;2.42;;;;;;;12.85;80.83;68201.66;5033811;28;19913;-83
2022/11/02 03:13:19;;;;;;;5.95;1.42;;;;;;;12.82;80.42;68198.25;5014247;28;20045;-83
2022/11/02 03:15:54;;;;;;;8.77;1.88;;;;;;;12.83;80.25;68194.03;5027404;28;20191;-84
2022/11/02 03:18:23;;;;;;;4.18;1.42;;;;;;;;;;5025412;28;20046;-83
2022/11/02 03:20:51;;;;;;;9.00;1.70;;;;;;;;;;5022069;28;20060;-83
2022/11/02 03:23:38;;;;;;;9.93;1.73;;;;;;;12.85;79.65;68201.66;5027486;28;20045;-84
2022/11/02 03:26:09;;;;;;;9.00;1.88;;;;;;;;;;5029236;28;20042;-84
2022/11/02 03:28:42;;;;;;;10.73;1.67;;;;;;;12.84;79.45;68192.50;5024472;28;20116;-83
2022/11/02 03:31:25;;;;;;;10.10;1.55;;;;;;;;;;5036139;28;20037;-84
2022/11/02 03:34:14;;;;;;;7.57;1.83;;;;;;;12.81;79.53;68191.78;5034931;28;20115;-83
2022/11/02 03:36:50;;;;;;;9.85;1.73;;;;;;;12.79;79.48;68188.91;5011793;28;20056;-84
2022/11/02 03:39:17;;;;;;;5.07;1.60;;;;;;;;;;4998170;28;20071;-85
2022/11/02 03:41:44;;;;;;;6.03;1.25;;;;;;;;;;4997591;28;20166;-83
2022/11/02 03:44:19;;;;;;;6.88;1.60;;;;;;;12.71;79.84;68185.72;5015561;28;20041;-84
2022/11/02 03:46:44;;;;;;;9.35;1.52;;;;;;;;;;5018545;28;20041;-84
2022/11/02 03:49:12;;;;;;;8.65;1.63;;;;;;;;;;5015911;28;20468;-83
2022/11/02 03:51:41;;;;;;;10.05;1.83;;;;;;;12.59;80.59;68172.09;5018009;28;20045;-84
2022/11/02 03:54:16;;;;;;;8.50;1.40;;;;;;;12.60;80.65;68173.22;5018964;28;20125;-84
2022/11/02 03:56:48;;;;;;;4.47;1.40;;;;;;;12.57;80.89;68164.47;5038579;28;20037;-83
2022/11/02 03:59:14;;;;;;;7.65;1.75;;;;;;;12.55;80.91;68168.13;5032377;28;20041;-84
2022/11/02 04:01:41;;;;;;;8.52;1.33;;;;;;;;;;5038577;28;20045;-84
2022/11/02 04:04:06;;;;;;;7.50;1.38;;;;;;;;;;5037956;28;20519;-84
2022/11/02 04:06:33;;;;;;;5.82;1.30;;;;;;;12.52;81.41;68159.38;5037920;28;20041;-83
2022/11/02 04:08:58;;;;;;;7.45;1.55;;;;;;;12.51;81.52;68163.56;5039431;28;20417;-83
2022/11/02 04:19:26;;;;;;;7.13;1.42;;;;;;;;;;5039658;28;20057;-83
2022/11/02 04:19:40;;;;;;;9.67;1.80;;;;;;;12.37;82.32;68147.66;5021289;28;20071;-83
2022/11/02 04:27:33;;;;;;;8.93;1.77;;;;;;;12.35;82.38;68140.63;5035327;28;20053;-84
2022/11/02 04:29:59;;;;;;;10.38;1.73;;;;;;;;;;5007658;28;20042;-84
2022/11/02 04:35:09;;;;;;;10.02;1.50;;;;;;;12.32;81.99;68137.22;5023381;28;20053;-84
2022/11/02 04:40:26;;;;;;;10.57;1.67;;;;;;;12.31;82.16;68133.38;5030001;28;20068;-84
2022/11/02 04:42:52;;;;;;;9.95;2.03;;;;;;;12.31;82.53;68141.41;5019718;28;20053;-84
2022/11/02 04:45:17;;;;;;;12.38;2.47;;;;;;;;;;5020522;28;20065;-83
2022/11/02 04:47:42;;;;;;;7.97;2.10;;;;;;;;;;5019491;28;20045;-84
2022/11/02 04:50:08;;;;;;;9.98;1.98;;;;;;;12.24;82.89;68133.47;5022631;28;20045;-85
2022/11/02 04:52:33;;;;;;;12.88;2.95;;;;;;;;;;5021210;28;20073;-83
2022/11/02 04:54:59;;;;;;;11.82;1.63;;;;;;;12.21;83.05;68130.06;5013395;28;20045;-82
2022/11/02 04:57:24;;;;;;;8.73;2.08;;;;;;;12.21;82.97;68130.06;5001700;28;20132;-83
2022/11/02 04:59:49;;;;;;;9.75;2.63;;;;;;;;;;5002902;28;20037;-83
2022/11/02 05:02:14;;;;;;;9.90;2.07;;;;;;;12.16;82.98;68124.94;5003108;28;20045;-83
2022/11/02 05:04:40;;;;;;;11.82;2.83;;;;;;;12.15;83.13;68123.22;5010403;28;20296;-83
2022/11/02 05:07:06;;;;;;;9.73;2.63;;;;;;;12.15;83.16;68117.91;5006616;28;20585;-83
2022/11/02 05:09:31;;;;;;;10.60;2.38;;;;;;;;;;5011467;28;20056;-83
2022/11/02 05:11:57;;;;;;;9.20;2.15;;;;;;;12.09;83.52;68111.09;5016470;28;20037;-83
2022/11/02 05:14:22;;;;;;;8.35;1.80;;;;;;;;;;5006875;28;20133;-83
2022/11/02 05:16:48;;;;;;;10.32;2.33;;;;;;;12.04;83.64;68111.28;4995514;28;20129;-83
2022/11/02 05:19:13;;;;;;;7.82;2.50;;;;;;;;;;5006936;28;20079;-82
2022/11/02 05:21:38;;;;;;;10.55;1.60;;;;;;;12.00;83.45;68101.44;5007645;28;20052;-84
2022/11/02 05:24:04;;;;;;;10.73;2.08;;;;;;;12.04;83.08;68105.97;5011024;28;20065;-83
2022/11/02 05:26:29;;;;;;;7.85;1.50;;;;;;;12.05;83.17;68107.09;5006536;28;20048;-83
2022/11/02 05:28:54;;;;;;;9.77;2.20;;;;;;;;;;5011249;28;20065;-83
2022/11/02 05:31:20;;;;;;;6.85;1.70;;;;;;;12.06;83.17;68113.00;5014837;28;20034;-83
2022/11/02 05:33:45;;;;;;;9.23;2.00;;;;;;;12.06;83.10;68113.00;5015112;28;20038;-83
2022/11/02 05:36:11;;;;;;;10.13;3.05;;;;;;;;;;5001067;28;20038;-82
2022/11/02 05:38:36;;;;;;;7.65;1.90;;;;;;;12.08;83.00;68110.50;5005587;28;20046;-83
2022/11/02 05:41:02;;;;;;;10.60;1.60;;;;;;;12.09;82.79;68116.97;5023649;28;20470;-83
2022/11/02 05:43:27;;;;;;;9.75;2.53;;;;;;;;;;5029118;28;20366;-83
2022/11/02 05:45:53;;;;;;;13.43;2.28;;;;;;;;;;5024085;28;20171;-83
2022/11/02 05:48:19;;;;;;;14.13;1.95;;;;;;;12.10;82.60;68112.78;5025628;28;20500;-82
2022/11/02 05:50:44;;;;;;;9.32;1.50;;;;;;;;;;5011537;28;20049;-83
2022/11/02 05:53:10;;;;;;;8.82;1.58;;;;;;;12.12;82.27;68119.81;5015725;28;20067;-83
2022/11/02 05:55:35;;;;;;;12.20;2.20;;;;;;;;;;5014963;28;20040;-83
2022/11/02 05:58:00;;;;;;;9.55;1.77;;;;;;;12.08;82.52;68110.50;5017698;28;20057;-82
2022/11/02 06:00:26;;;;;;;9.07;2.25;;;;;;;12.05;82.47;68112.44;5024375;28;20050;-83
2022/11/02 06:02:55;;;;;;;9.57;2.03;;;;;;;;;;5020527;28;20129;-82
2022/11/02 06:05:20;;;;;;;11.90;1.50;;;;;;;11.99;82.09;68099.72;5021314;28;20084;-82
2022/11/02 06:07:45;;;;;;;9.52;1.90;;;;;;;11.96;82.37;68094.75;5028908;28;20545;-82
2022/11/02 06:10:11;;;;;;;8.88;1.95;;;;;;;11.96;82.56;68102.19;5024465;28;20562;-82
2022/11/02 06:12:36;;;;;;;10.85;2.05;;;;;;;11.95;82.77;68103.75;5033206;28;20671;-83
2022/11/02 06:15:04;;;;;;;7.38;1.63;;;;;;;;;;5023257;28;20696;-82
2022/11/02 06:17:39;;;;;;;9.00;1.80;;;;;;;11.90;82.91;68090.63;5013523;28;20080;-83
2022/11/02 06:20:07;;;;;;;7.18;1.70;;;;;;;11.87;82.93;68087.22;5014292;28;20037;-83
2022/11/02 06:22:40;;;;;;;9.85;2.05;;;;;;;11.83;83.36;68082.66;5027906;28;20048;-84
2022/11/02 06:25:06;;;;;;;9.18;1.95;;;;;;;11.82;83.45;68086.28;5025177;28;20041;-83
2022/11/02 06:27:31;;;;;;;11.25;1.95;;;;;;;11.81;83.40;68087.81;5022286;28;20060;-83
2022/11/02 06:29:56;;;;;;;5.47;1.90;;;;;;;11.79;83.61;68077.53;5035629;28;20034;-82
2022/11/02 06:32:22;;;;;;;9.80;2.03;;;;;;;11.77;83.61;68080.59;5031153;28;20037;-82
2022/11/02 06:34:47;;;;;;;7.50;1.80;;;;;;;11.75;83.76;68073.56;5032628;28;20044;-82
2022/11/02 06:37:12;;;;;;;14.45;2.25;;;;;;;11.77;83.61;68081.19;5034770;28;20096;-82
2022/11/02 06:39:38;;;;;;;10.20;2.40;;;;;;;11.80;83.63;68084.59;5025850;28;20469;-83
2022/11/02 06:42:03;;;;;;;15.65;1.95;;;;;;;11.78;83.55;68081.75;5030517;28;20038;-82
2022/11/02 06:44:29;;;;;;;8.57;1.95;;;;;;;11.80;83.86;68078.69;5019440;28;20061;-82
2022/11/02 06:46:54;;;;;;;11.45;2.00;;;;;;;;;;5014300;28;20049;-83
2022/11/02 06:49:19;;;;;;;7.15;2.25;;;;;;;11.81;84.01;68085.72;5016925;28;20057;-83
2022/11/02 06:51:45;;;;;;;12.88;2.10;;;;;;;11.83;83.98;68079.44;5036463;28;20052;-83
2022/11/02 06:54:10;;;;;;;8.77;1.80;;;;;;;11.83;83.92;68082.66;5037882;28;20038;-83
2022/11/02 06:56:35;;;;;;;12.55;2.20;;;;;;;;;;5033609;28;20042;-83
2022/11/02 06:59:01;;;;;;;9.00;2.20;;;;;;;11.85;83.66;68090.28;5028948;28;20045;-83
2022/11/02 07:01:26;;;;;;;11.30;1.98;;;;;;;11.87;83.51;68095.22;5022145;28;20046;-84
2022/11/02 07:03:51;;;;;;;12.90;2.33;;;;;;;;;;5010605;28;20084;-84
2022/11/02 07:06:17;;;;;;;10.25;1.83;;;;;;;11.90;83.38;68098.06;5006442;28;20080;-85
2022/11/02 07:08:42;;;;;;;8.18;2.00;;;;;;;11.91;83.23;68097.09;5018041;28;20514;-84
2022/11/02 07:11:12;;;;;;;8.10;1.73;;;;;;;11.94;83.05;68094.63;5023691;28;20064;-84
2022/11/02 07:13:37;;;;;;;8.18;1.70;;;;;;;;;;5022522;28;20490;-84
2022/11/02 07:16:03;;;;;;;10.57;2.25;;;;;;;;;;5028234;28;20049;-84
2022/11/02 07:18:28;;;;;;;9.88;2.30;;;;;;;11.95;83.00;68101.06;5023223;28;20755;-84
2022/11/02 07:20:53;;;;;;;8.52;2.00;;;;;;;;;;5013342;28;20124;-84
2022/11/02 07:23:22;;;;;;;8.23;1.67;;;;;;;11.95;82.21;68095.75;5032735;28;20061;-83
2022/11/02 07:25:47;;;;;;;12.23;2.13;;;;;;;;;;5024442;28;20042;-84
2022/11/02 07:28:13;;;;;;;9.43;1.85;;;;;;;;;;5032138;28;20099;-84
2022/11/02 07:30:38;;;;;;;8.27;1.95;;;;;;;;;;5029438;28;20046;-85
2022/11/02 07:33:03;;;;;;;10.18;2.10;;;;;;;;;;5026756;28;20396;-85
2022/11/02 07:35:29;;;;;;;8.70;1.63;;;;;;;11.98;81.81;68103.91;5017995;28;20137;-85
2022/11/02 07:37:58;;;;;;;12.57;2.25;;;;;;;;;;5014887;28;20042;-85
2022/11/02 07:40:23;;;;;;;;;;;;;;;;;;5016048;28;20053;-85
2022/11/02 07:42:49;;;;;;;6.73;1.70;;;;;;;;;;5016187;28;19913;-85
2022/11/02 07:45:14;;;;;;;6.78;1.85;;;;;;;;;;5024561;28;20288;-84
2022/11/02 07:47:44;;;;;;;11.05;2.00;;;;;;;11.94;82.32;68094.63;5030465;28;20055;-85
2022/11/02 07:50:09;;;;;;;8.20;1.63;;;;;;;;;;5033573;28;20049;-85
2022/11/02 07:52:34;;;;;;;10.35;2.10;;;;;;;11.97;81.58;68103.34;5028782;28;20529;-85
2022/11/02 07:54:59;;;;;;;6.68;1.77;;;;;;;11.99;81.34;68100.28;5029024;28;20061;-85
2022/11/02 07:57:25;;;;;;;11.52;2.75;;;;;;;11.99;81.43;68105.63;5033790;28;20030;-84
2022/11/02 07:59:50;;;;;;;6.68;1.63;;;;;;;12.03;81.54;68109.59;5036697;28;20172;-85
2022/11/02 08:02:15;;;;;;;12.23;1.55;;;;;;;12.00;80.92;68108.84;5033886;28;20045;-86
2022/11/02 08:04:41;;;;;;;8.13;2.00;;;;;;;;;;5031716;28;20040;-86
2022/11/02 08:07:06;;;;;;;5.53;1.02;;;;;;;;;;5029586;28;20133;-86
2022/11/02 08:09:31;;;;;;;8.93;1.67;;;;;;;;;;5031900;28;20056;-85
2022/11/02 08:11:57;;;;;;;8.75;1.90;;;;;;;12.01;81.42;68107.88;5035108;28;20046;-85
2022/11/02 08:14:22;;;;;;;11.00;1.92;;;;;;;12.00;81.43;68101.44;5036693;28;20041;-85
2022/11/02 08:16:50;;;;;;;9.77;1.80;;;;;;;11.96;81.31;68102.78;5040209;28;20042;-85
2022/11/02 08:19:16;;;;;;;8.00;1.80;;;;;;;;;;5025295;28;20042;-85
2022/11/02 08:21:41;;;;;;;9.23;1.90;;;;;;;11.98;81.52;68098.59;5043613;28;20047;-85
2022/11/02 08:24:07;;;;;;;9.95;2.05;;;;;;;;;;5046616;28;20276;-85
2022/11/02 08:26:32;;;;;;;8.70;2.10;;;;;;;11.99;81.95;68105.03;5046854;28;20677;-86
2022/11/02 08:28:58;;;;;;;9.40;2.75;;;;;;;;;;5035489;28;20052;-85
2022/11/02 08:31:23;;;;;;;10.70;2.08;;;;;;;12.06;82.28;68108.25;5033281;28;20571;-85
2022/11/02 08:33:52;;;;;;;10.70;1.90;;;;;;;12.09;81.80;68111.66;5015160;28;20542;-85
2022/11/02 08:36:18;;;;;;;9.57;1.48;;;;;;;12.19;81.68;68122.44;5008127;28;20072;-85
2022/11/02 08:38:43;;;;;;;9.48;1.92;;;;;;;12.19;81.20;68123.00;5005333;28;20117;-85
2022/11/02 08:41:09;;;;;;;10.98;2.33;;;;;;;12.18;81.69;68127.22;4999844;28;20042;-85
2022/11/02 08:44:05;;;;;;;11.02;2.40;;;;;;;12.13;81.81;68121.53;5007674;28;20049;-85
2022/11/02 08:46:30;;;;;;;9.20;1.65;;;;;;;12.05;81.52;68106.53;5001185;28;20060;-85
2022/11/02 08:48:55;;;;;;;12.32;1.92;;;;;;;12.02;82.23;68108.44;5016957;28;20515;-85
2022/11/02 08:51:21;;;;;;;11.73;1.90;;;;;;;12.01;82.66;68102.00;4988676;28;20172;-85
2022/11/02 08:53:46;;;;;;;12.07;2.05;;;;;;;11.98;82.56;68099.16;4996667;28;20053;-85
2022/11/02 08:56:11;;;;;;;9.27;1.75;;;;;;;;;;5005980;28;20057;-85
2022/11/02 08:58:39;;;;;;;8.97;1.57;;;;;;;;;;4998340;28;20050;-85
2022/11/02 09:01:05;;;;;;;9.43;1.77;;;;;;;12.09;81.90;68108.41;5018794;28;20363;-85
2022/11/02 09:03:53;;;;;;;13.13;2.08;;;;;;;12.11;81.69;68119.25;5002979;28;20101;-85
2022/11/02 09:06:19;;;;;;;7.30;1.40;;;;;;;12.14;81.56;68122.09;4995128;28;20046;-87
2022/11/02 09:08:45;;;;;;;12.88;2.05;;;;;;;;;;5014073;28;20050;-85
2022/11/02 09:11:10;;;;;;;8.43;1.25;;;;;;;12.19;81.75;68127.78;4990248;28;20038;-86
2022/11/02 09:13:37;;;;;;;8.88;1.67;;;;;;;12.17;80.94;68117.50;5004893;28;20041;-85
2022/11/02 09:16:02;;;;;;;7.40;1.65;;;;;;;;;;5004302;28;20084;-86
2022/11/02 09:18:28;;;;;;;7.43;1.67;;;;;;;12.27;81.20;68128.28;5006178;28;20085;-86
2022/11/02 09:20:53;;;;;;;13.48;1.92;;;;;;;12.30;80.87;68140.28;5001908;28;20431;-86
2022/11/02 09:23:20;;;;;;;9.73;2.20;;;;;;;12.31;79.70;68140.84;4995579;28;20082;-86
2022/11/02 09:25:47;;;;;;;5.60;1.40;;;;;;;12.28;79.16;68132.66;5003264;28;20139;-87
2022/11/02 09:28:14;;;;;;;8.90;1.50;;;;;;;12.34;79.33;68139.50;4999050;28;20037;-87
2022/11/02 09:30:40;;;;;;;8.13;1.90;;;;;;;12.30;79.13;68139.72;5004929;28;20049;-86
2022/11/02 09:33:05;;;;;;;11.30;1.30;;;;;;;;;;5004772;28;20049;-86
2022/11/02 09:35:37;;;;;;;12.10;1.88;;;;;;;12.29;79.37;68139.16;5017754;28;20050;-87
2022/11/02 09:38:02;;;;;;;10.00;1.63;;;;;;;;;;5023669;28;20541;-86
2022/11/02 09:40:38;;;;;;;13.20;2.00;;;;;;;12.29;79.47;68139.16;5024227;28;20046;-86
2022/11/02 09:43:07;;;;;;;9.90;1.40;;;;;;;;;;5036226;28;20045;-87
2022/11/02 09:45:34;;;;;;;9.32;1.77;;;;;;;;;;5025838;28;20552;-87
2022/11/02 09:48:07;;;;;;;8.02;1.60;;;;;;;12.25;79.75;68134.03;5027550;28;20559;-86
2022/11/02 09:50:45;;;;;;;10.50;1.58;;;;;;;12.27;79.97;68131.53;5029522;28;20041;-86
2022/11/02 09:53:17;;;;;;;8.45;1.60;;;;;;;12.31;79.64;68144.06;5040543;28;20060;-86
2022/11/02 09:55:45;;;;;;;10.70;1.98;;;;;;;;;;5008541;28;20669;-86
2022/11/02 09:58:18;;;;;;;9.38;1.40;;;;;;;12.51;78.62;68166.22;5013970;28;20069;-86
2022/11/02 10:00:46;;;;;;;9.27;1.98;;;;;;;;;;5010636;28;20045;-86
2022/11/02 10:03:30;;;;;;;8.55;2.42;;;;;;;;;;5028358;28;20065;-86
2022/11/02 10:06:10;;;;;;;6.32;1.45;;;;;;;12.63;76.97;68171.88;5019818;28;20080;-86
2022/11/02 10:08:53;;;;;;;8.38;1.85;;;;;;;12.70;76.93;68184.59;5005239;28;20050;-86
2022/11/02 10:11:36;;;;;;;8.85;1.83;;;;;;;12.94;76.72;68205.41;5000849;28;20081;-86
2022/11/02 10:14:08;;;;;;;13.27;2.50;;;;;;;;;;5003349;28;20044;-85
2022/11/02 10:16:37;;;;;;;8.43;1.90;;;;;;;13.06;74.69;68219.03;5029036;28;20041;-85
2022/11/02 10:19:10;;;;;;;5.72;1.45;;;;;;;13.08;74.33;68221.31;5027309;28;20045;-86
2022/11/02 10:21:38;;;;;;;10.27;1.77;;;;;;;13.23;74.72;68238.38;5009029;28;20041;-86
2022/11/02 10:24:15;;;;;;;10.38;2.05;;;;;;;13.29;73.56;68244.66;5006053;28;20041;-86
2022/11/02 10:26:42;;;;;;;7.38;2.00;;;;;;;13.27;73.46;68242.38;5007102;28;20092;-86
2022/11/02 10:29:25;;;;;;;9.60;1.85;;;;;;;13.29;72.83;68244.66;5009433;28;20042;-86
2022/11/02 10:31:50;;;;;;;9.20;2.03;;;;;;;;;;4990861;28;20049;-86
2022/11/02 10:34:27;;;;;;;8.30;1.95;;;;;;;13.20;72.68;68234.97;4990314;28;20046;-86
2022/11/02 10:37:06;;;;;;;10.65;2.22;;;;;;;13.13;73.44;68227.00;4999409;28;20046;-86
2022/11/02 10:39:49;;;;;;;7.10;2.25;;;;;;;;;;5009217;28;20042;-86
2022/11/02 10:42:53;;;;;;;8.70;1.90;;;;;;;13.00;73.03;68218.13;5017809;28;20049;-86
2022/11/02 10:45:38;;;;;;;8.55;1.75;;;;;;;13.08;73.22;68221.88;4997210;28;20038;-87
2022/11/02 10:48:16;;;;;;;8.02;1.08;;;;;;;;;;5020777;28;20054;-86
2022/11/02 10:50:52;;;;;;;13.50;1.98;;;;;;;13.32;72.49;68254.00;5027166;28;20037;-86
2022/11/02 10:53:20;;;;;;;9.57;1.67;;;;;;;13.46;72.08;68260.75;5022612;28;20041;-86
2022/11/02 10:55:58;;;;;;;10.73;1.85;;;;;;;13.35;71.10;68256.25;5023946;28;20037;-86
2022/11/02 10:58:27;;;;;;;9.90;1.98;;;;;;;13.34;72.39;68255.69;5027442;28;20053;-86
2022/11/02 11:01:05;;;;;;;10.05;1.42;;;;;;;;;;5014780;28;20038;-87
2022/11/02 11:03:31;;;;;;;9.73;2.13;;;;;;;13.32;70.36;68248.06;5018822;28;20128;-88
2022/11/02 11:06:01;;;;;;;8.02;1.90;;;;;;;;;;5019301;28;20092;-87
2022/11/02 11:08:30;;;;;;;8.05;1.25;;;;;;;;;;5011577;28;20113;-87
2022/11/02 11:11:28;;;;;;;9.63;1.80;;;;;;;13.46;69.58;68272.00;5025888;28;20045;-87
2022/11/02 11:13:55;;;;;;;12.27;1.90;;;;;;;13.51;71.22;68269.09;5013437;28;20050;-87
2022/11/02 11:16:32;;;;;;;8.20;1.27;;;;;;;13.58;67.99;68276.50;5006939;28;20470;-86
2022/11/02 11:18:58;;;;;;;9.25;1.50;;;;;;;;;;5003175;28;20107;-87
2022/11/02 11:21:33;;;;;;;8.10;1.88;;;;;;;;;;4999938;28;20043;-87
2022/11/02 11:24:29;;;;;;;7.10;1.33;;;;;;;13.68;66.30;68293.22;5034318;28;20858;-87
2022/11/02 11:27:02;;;;;;;6.75;1.92;;;;;;;13.56;66.16;68274.81;4983483;28;20137;-87
2022/11/02 11:29:33;;;;;;;7.85;1.33;;;;;;;13.58;66.90;68282.44;5022292;28;20052;-87
2022/11/02 11:32:00;;;;;;;9.30;2.08;;;;;;;13.69;67.32;68289.00;5021526;28;20046;-86
2022/11/02 11:34:29;;;;;;;6.38;1.42;;;;;;;13.80;66.24;68300.97;5010035;28;20046;-87
2022/11/02 11:37:03;;;;;;;7.97;1.60;;;;;;;;;;5006273;28;20038;-87
2022/11/02 11:39:29;;;;;;;5.72;0.85;;;;;;;;;;5020498;28;20069;-87
2022/11/02 11:41:55;;;;;;;7.78;1.45;;;;;;;;;;5013844;28;20048;-87
2022/11/02 11:44:21;;;;;;;7.57;1.70;;;;;;;;;;5014855;28;20473;-87
2022/11/02 11:46:50;;;;;;;9.40;2.35;;;;;;;14.41;63.55;68369.81;5024950;28;20048;-86
2022/11/02 11:49:15;;;;;;;;;;;;;;;;;;5023206;28;20050;-87
2022/11/02 11:51:42;;;;;;;4.80;1.13;;;;;;;14.15;63.20;68340.78;5027356;28;19920;-87
2022/11/02 11:54:31;;;;;;;6.50;1.27;;;;;;;14.08;64.79;68329.59;5027464;28;20042;-86
2022/11/02 11:57:24;;;;;;;9.60;1.58;;;;;;;14.10;63.19;68340.47;5020769;28;20437;-86
2022/11/02 11:59:57;;;;;;;7.55;1.50;;;;;;;;;;5020705;28;20046;-87
2022/11/02 12:02:31;;;;;;;7.45;1.58;;;;;;;14.28;62.68;68359.81;5016249;28;20605;-87
2022/11/02 12:05:16;;;;;;;9.10;1.73;;;;;;;;;;5021350;28;20041;-87
2022/11/02 12:08:00;;;;;;;11.63;1.80;;;;;;;;;;5041317;28;20537;-87
2022/11/02 12:10:51;;;;;;;8.13;2.00;;;;;;;14.18;63.23;68349.56;5024926;28;20034;-87
2022/11/02 12:13:32;;;;;;;7.43;1.55;;;;;;;;;;5024704;28;20129;-86
2022/11/02 12:16:11;;;;;;;7.93;1.80;;;;;;;14.25;62.77;68356.41;5017826;28;20063;-87
2022/11/02 12:18:39;;;;;;;7.05;1.70;;;;;;;14.33;63.54;68360.16;5014428;28;20046;-85
2022/11/02 12:21:09;;;;;;;9.57;1.80;;;;;;;;;;5019576;28;20042;-85
2022/11/02 12:24:03;;;;;;;8.77;1.55;;;;;;;14.30;63.67;68356.72;5030670;28;20053;-85
2022/11/02 12:27:00;;;;;;;10.00;1.70;;;;;;;14.15;61.97;68340.78;5029277;28;20057;-86
2022/11/02 12:29:26;;;;;;;8.45;1.58;;;;;;;14.09;63.20;68333.94;5011203;28;20099;-85
2022/11/02 12:32:00;;;;;;;8.80;1.67;;;;;;;;;;5023299;28;20042;-85
2022/11/02 12:34:52;;;;;;;7.57;1.23;;;;;;;14.22;63.24;68348.75;5026643;28;20609;-86
2022/11/02 12:38:04;;;;;;;9.68;1.73;;;;;;;14.37;63.12;68364.69;5026939;28;20494;-85
2022/11/02 12:41:05;;;;;;;8.27;2.13;;;;;;;14.42;62.96;68370.38;5031894;28;20051;-85
2022/11/02 12:43:41;;;;;;;11.07;2.17;;;;;;;14.20;65.79;68345.91;5020888;28;20542;-85
2022/11/02 12:46:12;;;;;;;8.55;1.40;;;;;;;;;;5015687;28;20045;-86
2022/11/02 12:48:44;;;;;;;7.70;1.60;;;;;;;;;;5038625;28;20695;-86
2022/11/02 12:51:42;;;;;;;9.57;1.40;;;;;;;;;;5030874;28;20052;-86
2022/11/02 12:54:14;;;;;;;6.72;1.42;;;;;;;;;;5006932;28;20759;-86
2022/11/02 12:56:48;;;;;;;5.70;1.45;;;;;;;14.53;63.85;68382.94;5030266;28;20049;-85
2022/11/02 12:59:40;;;;;;;8.75;2.22;;;;;;;;;;5015937;28;20045;-86
2022/11/02 13:02:13;;;;;;;9.02;1.95;;;;;;;15.01;62.88;68441.22;5020720;28;20042;-86